• Join FlightAware (Why Join?)
  • Login
  • US Flag 
06:28AM EST


 

Airport Tracker/Info


-or-


 

Live Flight TrackerFlight Track Log ✈ AMF1324 ✈ 15-Nov-2013 ✈ KBUF - KBGM

Flight Track Log - Related Links

Times and Time Zones

All times are in EST time to prevent confusion due to time zone crossing. See the AMF1324 flight status page for this flight to view local times or setup timezone preferences in your user account.

Time Position Orientation Groundspeed Altitude Reporting Facility
EST Latitude Longitude Course Direction KTS MPH feet Rate Location/Type
06:33AM 42.8847 -78.5958 109° East 179 206 11,000  Level Cleveland Center
06:34AM 42.8681 -78.5303 109° East 185 213 5,500 -2,220 Descending Cleveland Center
06:35AM 42.8483 -78.4617 111° Southeast 187 215 6,600 1,020 Climbing Cleveland Center
06:36AM 42.8347 -78.3875 104° East 195 224 7,700 1,020 Climbing Cleveland Center
06:37AM 42.8161 -78.3239 112° Southeast 188 216 8,700 600 Climbing Cleveland Center
06:38AM 42.7969 -78.2481 109° East 206 237 9,000 120 Climbing Cleveland Center
06:39AM 42.7842 -78.1961 109° East 223 257 9,000  Level Cleveland Center
06:39AM 42.7775 -78.1672 107° East 214 246 9,000  Level Cleveland Center
06:40AM 42.7667 -78.1281 111° Southeast 214 246 9,000 -120 Level Cleveland Center
06:40AM 42.7575 -78.0853 106° East 218 251 8,900  Descending Cleveland Center
06:41AM 42.7486 -78.0481 108° East 220 253 9,000  Climbing Cleveland Center
06:41AM 42.7400 -78.0094 107° East 219 252 8,900  Descending Cleveland Center
06:42AM 42.7286 -77.9533 105° East 222 255 9,000 60 Climbing Cleveland Center
06:42AM 42.7203 -77.9253 112° Southeast 223 257 9,000  Level Cleveland Center
06:43AM 42.7064 -77.8725 110° East 224 258 9,000  Level Cleveland Center
06:43AM 42.7008 -77.8489 108° East 220 253 9,000 -120 Level Cleveland Center
06:44AM 42.6886 -77.8044 110° East 221 254 8,900  Descending Cleveland Center
06:44AM 42.6789 -77.7636 108° East 218 251 9,000 60 Climbing Cleveland Center
06:45AM 42.6683 -77.7242 110° East 220 253 9,000  Level Cleveland Center
06:45AM 42.6603 -77.6856 106° East 218 251 9,000  Level Cleveland Center
06:46AM 42.6467 -77.6381 111° Southeast 209 241 9,000  Level Cleveland Center
06:46AM 42.6414 -77.6094 104° East 215 247 9,000  Level Cleveland Center
06:47AM 42.6203 -77.5336 111° Southeast 215 247 9,000  Level Cleveland Center
06:48AM 42.6008 -77.4569 109° East 216 249 9,000  Level Cleveland Center
06:50AM 42.5806 -77.3756 109° East 216 249 9,000  Level Cleveland Center
06:51AM 42.5608 -77.2983 109° East 216 249 9,000  Level Cleveland Center
06:52AM 42.5408 -77.2225 110° East 214 246 9,000  Level Cleveland Center
06:53AM 42.5211 -77.1467 109° East 213 245 9,000  Level Cleveland Center
06:54AM 42.5025 -77.0714 109° East 212 244 9,100  Climbing Cleveland Center
06:55AM 42.4822 -76.9964 110° East 213 245 9,100  Level Cleveland Center
06:56AM 42.4639 -76.9197 108° East 214 246 9,100  Level Cleveland Center
06:57AM 42.4408 -76.8292 109° East 212 244 9,100  Level Cleveland Center
06:58AM 42.4239 -76.7647 110° East 215 247 9,100 -60 Level New York Center
06:59AM 42.4047 -76.6900 109° East 210 242 9,000  Descending New York Center
07:00AM 42.4233 -76.6075 73° East 210 242 9,100  Climbing New York Center
07:01AM 42.4419 -76.5219 74° East 221 254 9,100 -60 Level New York Center
07:02AM 42.4644 -76.4425 69° East 221 254 9,000 -540 Descending New York Center
07:03AM 42.4686 -76.3558 86° East 221 254 8,100 -1,020 Descending New York Center
07:04AM 42.4539 -76.2675 103° East 221 254 7,000 -960 Descending New York Center
07:05AM 42.4264 -76.1864 115° Southeast 231 266 6,200 -960 Descending New York Center
07:06AM 42.3900 -76.1217 127° Southeast 226 260 5,100 -960 Descending New York Center
07:07AM 42.3375 -76.0836 152° Southeast 210 242 4,300 -600 Descending New York Center
07:08AM 42.2931 -76.0519 152° Southeast 184 212 4,000 -600 Descending New York Center
07:09AM 42.2592 -76.0214 146° Southeast 163 188 3,100 -780 Descending New York Center
07:10AM 42.2247 -75.9989 154° Southeast 157 181 2,500 -600 Descending New York Center